Time;durP1;ratioP1;P1;durP2;ratioP2;P2;SDS_P1;SDS_P2;PMS_P1;PMS_P2;Temp;Humidity;BMP_temperature;BMP_pressure;BME280_temperature;BME280_humidity;BME280_pressure;Samples;Min_cycle;Max_cycle;Signal;HPM_P1;HPM_P2
2021/12/07 00:01:32;;;;;;;31.50;10.63;;;;;;;0.54;100.00;100510.38;5070045;28;20115;-81
2021/12/07 00:03:57;;;;;;;28.73;10.68;;;;;;;0.53;100.00;100514.63;5069774;28;20478;-81
2021/12/07 00:06:23;;;;;;;31.63;11.00;;;;;;;0.56;100.00;100513.78;5071707;28;20124;-81
2021/12/07 00:08:54;;;;;;;32.05;10.55;;;;;;;0.58;100.00;100518.09;5071028;28;20021;-82
2021/12/07 00:11:20;;;;;;;37.60;12.23;;;;;;;0.59;100.00;100532.53;5070965;28;20483;-82
2021/12/07 00:13:45;;;;;;;37.90;11.63;;;;;;;0.62;100.00;100522.38;5078430;28;20029;-82
2021/12/07 00:16:11;;;;;;;39.55;12.10;;;;;;;0.65;100.00;100531.75;5071913;28;20025;-82
2021/12/07 00:18:37;;;;;;;43.63;12.77;;;;;;;0.68;100.00;100522.44;5070776;28;20028;-84
2021/12/07 00:21:04;;;;;;;37.53;12.27;;;;;;;0.70;100.00;100523.31;5071434;28;20494;-84
2021/12/07 00:23:30;;;;;;;39.28;11.63;;;;;;;0.71;100.00;100526.72;5068930;28;20159;-84
2021/12/07 00:25:55;;;;;;;44.50;14.30;;;;;;;0.73;100.00;100531.00;5072199;28;20096;-84
2021/12/07 00:28:22;;;;;;;45.75;14.15;;;;;;;0.74;100.00;100530.19;5070279;28;20032;-84
2021/12/07 00:30:50;;;;;;;44.55;14.57;;;;;;;0.71;100.00;100527.56;5070484;28;20031;-84
2021/12/07 00:33:33;;;;;;;46.20;14.27;;;;;;;0.72;100.00;100534.41;5070363;28;20367;-84
2021/12/07 00:35:58;;;;;;;54.80;14.80;;;;;;;0.69;100.00;100531.78;5070805;28;20024;-84
2021/12/07 00:38:26;;;;;;;53.30;15.15;;;;;;;0.71;100.00;100535.22;5069104;28;20025;-84
2021/12/07 00:40:54;;;;;;;52.10;15.10;;;;;;;0.71;100.00;100539.47;5071459;28;20056;-84
2021/12/07 00:43:20;;;;;;;52.80;16.05;;;;;;;0.68;100.00;100535.19;5070424;28;20433;-84
2021/12/07 00:45:46;;;;;;;50.38;15.60;;;;;;;0.72;100.00;100548.84;5070310;28;20496;-84
2021/12/07 00:48:14;;;;;;;55.00;15.98;;;;;;;0.72;100.00;100539.50;5071320;28;20029;-84
2021/12/07 00:50:42;;;;;;;55.50;15.73;;;;;;;0.73;100.00;100546.31;5070071;28;20103;-84
2021/12/07 00:53:09;;;;;;;57.45;16.73;;;;;;;0.73;100.00;100545.47;5070976;28;20722;-83
2021/12/07 00:55:38;;;;;;;57.35;16.20;;;;;;;0.74;100.00;100555.69;5068156;28;20020;-83
2021/12/07 00:58:12;;;;;;;63.22;18.30;;;;;;;0.77;100.00;100552.28;5070129;28;20032;-83
2021/12/07 01:00:39;;;;;;;68.03;18.23;;;;;;;0.79;100.00;100556.59;5073873;28;20028;-83
2021/12/07 01:03:05;;;;;;;67.50;17.63;;;;;;;0.81;100.00;100559.16;5069820;28;20041;-83
2021/12/07 01:05:34;;;;;;;62.13;16.98;;;;;;;0.88;100.00;100575.38;5070031;28;20355;-83
2021/12/07 01:26:52;;;;;;;82.07;18.97;;;;;;;1.17;100.00;100604.59;5070565;28;20047;-82
2021/12/07 01:29:21;;;;;;;69.90;17.88;;;;;;;1.21;100.00;100608.91;5068020;28;20024;-82
2021/12/07 01:31:55;;;;;;;72.75;18.45;;;;;;;1.24;100.00;100608.94;5069374;28;20024;-82
2021/12/07 01:37:10;;;;;;;70.78;17.42;;;;;;;1.28;100.00;100610.69;5066082;28;20064;-82
2021/12/07 01:45:27;;;;;;;69.65;16.85;;;;;;;1.31;100.00;100635.38;5070406;28;20135;-82
2021/12/07 01:48:07;;;;;;;60.75;16.35;;;;;;;1.34;100.00;100630.31;5068754;28;20020;-82
2021/12/07 01:53:15;;;;;;;68.13;17.33;;;;;;;1.38;100.00;100640.56;5067149;28;20032;-82
2021/12/07 02:01:09;;;;;;;67.40;15.60;;;;;;;1.38;100.00;100652.47;5063884;28;20032;-82
2021/12/07 02:03:38;;;;;;;67.45;17.05;;;;;;;1.37;100.00;100649.06;5063666;28;20074;-82
2021/12/07 02:06:04;;;;;;;63.88;15.55;;;;;;;1.37;100.00;100651.63;5069837;28;20466;-82
2021/12/07 02:08:29;;;;;;;68.30;16.23;;;;;;;1.40;100.00;100653.34;5069044;28;20020;-82
2021/12/07 02:10:59;;;;;;;75.18;16.85;;;;;;;1.42;100.00;100662.75;5073740;28;20039;-83
2021/12/07 02:15:57;;;;;;;79.93;17.30;;;;;;;1.49;100.00;100669.66;5069782;28;20025;-82
2021/12/07 02:18:22;;;;;;;72.15;16.35;;;;;;;1.52;100.00;100672.22;5068927;28;20047;-82
2021/12/07 02:20:49;;;;;;;91.18;17.35;;;;;;;1.54;100.00;100675.66;5067651;28;20494;-82
2021/12/07 02:23:15;;;;;;;71.57;15.43;;;;;;;1.56;100.00;100676.53;5063502;28;20115;-82
2021/12/07 02:25:41;;;;;;;79.53;16.85;;;;;;;1.59;100.00;100681.66;5057632;28;20024;-82
2021/12/07 02:28:12;;;;;;;73.50;15.40;;;;;;;1.61;100.00;100685.91;5069095;28;20035;-82
2021/12/07 02:30:38;;;;;;;78.80;16.00;;;;;;;1.57;100.00;100677.34;5069460;28;20043;-82
2021/12/07 02:33:04;;;;;;;72.38;14.38;;;;;;;1.61;100.00;100689.34;5067984;28;20032;-82
2021/12/07 02:35:29;;;;;;;65.82;14.52;;;;;;;1.59;100.00;100689.31;5069221;28;20024;-82
2021/12/07 02:37:57;;;;;;;61.63;14.77;;;;;;;1.59;100.00;100691.00;5068429;28;20032;-82
2021/12/07 02:40:23;;;;;;;68.22;13.57;;;;;;;1.64;100.00;100699.56;5068933;28;20020;-82
2021/12/07 02:42:49;;;;;;;63.10;12.95;;;;;;;1.65;100.00;100697.88;5069795;28;20051;-82
2021/12/07 02:45:15;;;;;;;71.32;13.70;;;;;;;1.65;100.00;100702.97;5069097;28;20020;-82
2021/12/07 02:47:41;;;;;;;67.47;12.73;;;;;;;1.64;100.00;100703.84;5067758;28;20028;-82
2021/12/07 02:50:08;;;;;;;60.47;11.60;;;;;;;1.61;100.00;100704.66;5069289;28;20032;-82
2021/12/07 02:52:34;;;;;;;60.53;11.43;;;;;;;1.62;100.00;100715.72;5068795;28;20017;-82
2021/12/07 02:54:59;;;;;;;59.22;11.48;;;;;;;1.63;100.00;100727.66;5069026;28;20024;-82
2021/12/07 02:57:25;;;;;;;45.85;10.70;;;;;;;1.60;100.00;100720.81;5066914;28;20024;-82
2021/12/07 03:00:00;;;;;;;64.35;10.13;;;;;;;1.61;100.00;100725.09;5073623;28;20111;-82
2021/12/07 03:02:26;;;;;;;52.10;10.07;;;;;;;1.65;100.00;100739.59;5072990;28;20089;-82
2021/12/07 03:05:02;;;;;;;59.25;10.10;;;;;;;1.62;100.00;100731.91;5069132;28;20108;-82
2021/12/07 03:07:48;;;;;;;54.45;9.43;;;;;;;1.62;100.00;100742.13;5068757;28;20368;-82
2021/12/07 03:26:39;;;;;;;50.57;8.13;;;;;;;1.65;100.00;100769.41;5068977;28;20302;-82
2021/12/07 03:29:04;;;;;;;51.03;7.43;;;;;;;1.62;100.00;100771.94;5069047;28;20402;-82
2021/12/07 03:31:30;;;;;;;36.10;7.13;;;;;;;1.56;100.00;100772.72;5069053;28;20082;-82
2021/12/07 03:33:58;;;;;;;36.03;6.95;;;;;;;1.49;100.00;100768.38;5068834;28;20025;-82
2021/12/07 03:36:24;;;;;;;37.63;7.45;;;;;;;1.45;100.00;100777.69;5069186;28;20028;-82
2021/12/07 03:38:50;;;;;;;39.38;6.97;;;;;;;1.41;100.00;100783.59;5067973;28;20449;-82
2021/12/07 03:41:17;;;;;;;53.55;7.28;;;;;;;1.38;100.00;100781.00;5069056;28;20186;-82
2021/12/07 03:43:42;;;;;;;35.22;6.88;;;;;;;1.39;100.00;100785.28;5070892;28;20352;-82
2021/12/07 03:46:09;;;;;;;43.03;7.22;;;;;;;1.41;100.00;100796.38;5068641;28;20524;-82
2021/12/07 03:48:34;;;;;;;40.28;7.10;;;;;;;1.40;100.00;100799.75;5071962;28;20056;-82
2021/12/07 03:51:00;;;;;;;39.92;7.22;;;;;;;1.41;100.00;100804.03;5072267;28;20071;-82
2021/12/07 03:53:28;;;;;;;36.85;6.20;;;;;;;1.41;100.00;100798.94;5074938;28;20044;-82
2021/12/07 03:55:53;;;;;;;49.10;7.90;;;;;;;1.39;100.00;100805.72;5070767;28;20074;-82
2021/12/07 03:58:19;;;;;;;37.53;6.45;;;;;;;1.39;100.00;100810.81;5074134;28;20025;-82
2021/12/07 04:00:46;;;;;;;37.63;6.82;;;;;;;1.36;100.00;100815.03;5072336;28;20025;-82
2021/12/07 04:03:14;;;;;;;35.50;5.70;;;;;;;1.37;100.00;100812.47;5071724;28;20044;-82
2021/12/07 04:05:53;;;;;;;35.40;6.40;;;;;;;1.34;100.00;100809.91;5071921;28;20021;-82
2021/12/07 04:08:23;;;;;;;36.35;6.65;;;;;;;1.31;100.00;100809.00;5072432;28;20104;-82
2021/12/07 04:10:48;;;;;;;40.85;6.95;;;;;;;1.30;100.00;100812.41;5071786;28;20431;-82
2021/12/07 04:13:14;;;;;;;37.78;5.70;;;;;;;1.26;100.00;100815.75;5071872;28;20495;-82
2021/12/07 04:15:40;;;;;;;34.42;6.68;;;;;;;1.24;100.00;100813.16;5083783;28;20508;-82
2021/12/07 04:18:06;;;;;;;38.15;6.20;;;;;;;1.22;100.00;100816.53;5071290;28;20028;-82
2021/12/07 04:20:32;;;;;;;28.30;5.65;;;;;;;1.22;100.00;100827.63;5071445;28;20052;-82
2021/12/07 04:22:58;;;;;;;30.70;6.22;;;;;;;1.24;100.00;100835.28;5084789;28;20120;-82
2021/12/07 04:25:26;;;;;;;44.55;6.30;;;;;;;1.24;100.00;100833.59;5059722;28;20108;-82
2021/12/07 04:27:52;;;;;;;38.20;6.20;;;;;;;1.25;100.00;100826.78;5074579;28;20149;-82
2021/12/07 04:30:25;;;;;;;35.00;5.85;;;;;;;1.25;100.00;100829.34;5072594;28;20032;-82
2021/12/07 04:32:51;;;;;;;35.88;5.70;;;;;;;1.25;100.00;100840.41;5072586;28;20029;-82
2021/12/07 04:35:17;;;;;;;35.30;6.20;;;;;;;1.23;100.00;100839.53;5071831;28;20082;-82
2021/12/07 04:37:42;;;;;;;33.08;6.05;;;;;;;1.23;100.00;100844.63;5071697;28;20098;-82
2021/12/07 04:40:11;;;;;;;34.33;5.93;;;;;;;1.23;100.00;100843.78;5071949;28;20110;-82
2021/12/07 04:42:36;;;;;;;42.38;6.78;;;;;;;1.22;100.00;100845.50;5071552;28;20103;-82
2021/12/07 04:45:06;;;;;;;42.42;5.55;;;;;;;1.21;100.00;100860.78;5070172;28;20463;-82
2021/12/07 04:47:55;;;;;;;28.80;5.85;;;;;;;1.17;100.00;100859.84;5071118;28;20028;-82
2021/12/07 04:57:35;;;;;;;33.55;5.40;;;;;;;1.15;100.00;100866.66;5074276;28;20487;-82
2021/12/07 04:58:45;;;;;;;33.22;5.63;;;;;;;1.06;100.00;100863.97;5058827;28;20055;-82
2021/12/07 05:01:11;;;;;;;30.15;4.95;;;;;;;1.03;100.00;100840.94;5070489;28;20028;-82
2021/12/07 05:03:40;;;;;;;25.90;5.07;;;;;;;0.99;100.00;100857.03;5070492;28;20017;-82
2021/12/07 05:06:08;;;;;;;30.85;5.30;;;;;;;0.96;100.00;100879.94;5070467;28;20031;-82
2021/12/07 05:08:40;;;;;;;42.50;5.55;;;;;;;0.93;100.00;100875.69;5070580;28;20477;-82
2021/12/07 05:13:39;;;;;;;28.77;5.00;;;;;;;0.85;100.00;100882.34;5071128;28;20387;-82
2021/12/07 05:24:01;;;;;;;26.67;4.82;;;;;;;0.94;100.00;100899.50;5070360;28;20097;-83
2021/12/07 05:39:57;;;;;;;23.80;4.80;;;;;;;0.67;100.00;100910.09;5070661;28;20568;-83
2021/12/07 05:42:23;;;;;;;28.75;4.95;;;;;;;0.61;100.00;100910.00;5068097;28;20055;-83
2021/12/07 05:44:50;;;;;;;18.65;5.30;;;;;;;0.57;100.00;100920.97;5070355;28;20103;-82
2021/12/07 05:47:15;;;;;;;23.40;5.18;;;;;;;0.51;100.00;100926.81;5069377;28;20023;-83
2021/12/07 05:49:40;;;;;;;24.17;4.72;;;;;;;0.44;100.00;100940.28;5071808;28;20028;-83
2021/12/07 05:52:06;;;;;;;26.17;5.00;;;;;;;0.43;100.00;100946.22;5069593;28;20461;-83
2021/12/07 05:54:32;;;;;;;21.08;4.90;;;;;;;0.40;100.00;100948.72;5069924;28;20036;-83
2021/12/07 05:56:57;;;;;;;21.90;4.43;;;;;;;0.39;100.00;100957.19;5069368;28;20032;-83
2021/12/07 05:59:22;;;;;;;27.33;5.10;;;;;;;0.35;100.00;100966.47;5071078;28;20111;-83
2021/12/07 06:01:48;;;;;;;25.25;4.93;;;;;;;0.35;100.00;100966.47;5069633;28;20062;-83
2021/12/07 06:04:13;;;;;;;29.35;4.88;;;;;;;0.34;100.00;100972.38;5067188;28;20024;-83
2021/12/07 06:06:39;;;;;;;22.73;4.63;;;;;;;0.31;100.00;100959.59;5069855;28;20445;-83
2021/12/07 06:09:05;;;;;;;34.38;4.88;;;;;;;0.29;100.00;100968.03;5073068;28;20070;-83
2021/12/07 06:11:30;;;;;;;19.15;4.50;;;;;;;0.26;100.00;100973.06;5070086;28;20083;-84
2021/12/07 06:13:56;;;;;;;23.92;4.63;;;;;;;0.26;100.00;100973.94;5072440;28;20455;-84
2021/12/07 06:16:21;;;;;;;29.33;5.05;;;;;;;0.26;100.00;100973.06;5068525;28;20047;-84
2021/12/07 06:18:47;;;;;;;24.63;4.60;;;;;;;0.25;100.00;100967.13;5069767;28;20023;-83
2021/12/07 06:21:13;;;;;;;36.45;5.75;;;;;;;0.27;100.00;100972.25;5070213;28;20055;-84
2021/12/07 06:23:39;;;;;;;27.55;5.60;;;;;;;0.28;100.00;100964.63;5069432;28;20119;-84
2021/12/07 06:26:05;;;;;;;25.55;4.90;;;;;;;0.27;100.00;100960.34;5069017;28;20048;-83
2021/12/07 06:28:31;;;;;;;35.28;5.80;;;;;;;0.31;100.00;100971.47;5074933;28;20057;-82
2021/12/07 06:30:56;;;;;;;30.70;6.07;;;;;;;0.32;100.00;100960.44;5070359;28;20064;-82
2021/12/07 06:33:24;;;;;;;31.63;6.90;;;;;;;0.27;100.00;100964.59;5082338;28;20012;-82
2021/12/07 06:35:56;;;;;;;37.08;8.45;;;;;;;0.26;100.00;100980.72;5074275;28;20642;-82
2021/12/07 06:38:22;;;;;;;49.33;8.45;;;;;;;0.21;100.00;100975.50;5074953;28;20024;-83
2021/12/07 06:40:48;;;;;;;49.78;10.02;;;;;;;0.22;100.00;100977.25;5071027;28;20086;-82
2021/12/07 06:43:14;;;;;;;40.35;9.80;;;;;;;0.19;100.00;100974.66;5070660;28;20140;-82
2021/12/07 06:45:39;;;;;;;46.13;10.35;;;;;;;0.20;100.00;100978.06;5067950;28;20451;-83
2021/12/07 06:48:05;;;;;;;55.33;11.50;;;;;;;0.20;100.00;100970.41;5068779;28;20025;-83
2021/12/07 06:50:31;;;;;;;52.75;11.77;;;;;;;0.19;100.00;100968.69;5069591;28;20016;-83
2021/12/07 06:52:56;;;;;;;55.83;11.48;;;;;;;0.19;100.00;100974.66;5067438;28;20047;-82
2021/12/07 06:55:22;;;;;;;44.92;12.20;;;;;;;0.16;100.00;100983.91;5067913;28;20450;-83
2021/12/07 06:57:47;;;;;;;55.95;13.20;;;;;;;0.19;100.00;100984.84;5066597;28;20411;-83
2021/12/07 07:00:14;;;;;;;44.95;12.02;;;;;;;0.15;100.00;100985.59;5067728;28;20033;-83
2021/12/07 07:02:40;;;;;;;51.55;12.38;;;;;;;0.16;100.00;100991.53;5066895;28;20514;-83
2021/12/07 07:05:06;;;;;;;46.67;13.43;;;;;;;0.16;100.00;100987.31;5066892;28;20032;-82
2021/12/07 07:07:33;;;;;;;58.90;13.20;;;;;;;0.18;100.00;100990.75;5066825;28;20476;-82
2021/12/07 07:09:59;;;;;;;52.15;12.52;;;;;;;0.14;100.00;100993.19;5067723;28;20027;-82
2021/12/07 07:12:24;;;;;;;54.40;13.25;;;;;;;0.17;100.00;100994.13;5071626;28;20021;-82
2021/12/07 07:14:50;;;;;;;57.55;13.80;;;;;;;0.22;100.00;101010.38;5068860;28;20028;-81
2021/12/07 07:17:16;;;;;;;58.08;14.43;;;;;;;0.20;100.00;100995.91;5067029;28;20039;-82
2021/12/07 07:19:41;;;;;;;48.22;13.88;;;;;;;0.15;100.00;100997.47;5066287;28;20045;-81
2021/12/07 07:22:06;;;;;;;59.35;14.65;;;;;;;0.12;100.00;100998.28;5067673;28;20494;-81
2021/12/07 07:24:33;;;;;;;62.90;14.63;;;;;;;0.14;100.00;100988.09;5070031;28;20029;-82
2021/12/07 07:26:59;;;;;;;48.55;15.20;;;;;;;0.12;100.00;100993.19;5071037;28;20024;-81
2021/12/07 07:29:25;;;;;;;53.55;14.30;;;;;;;0.15;100.00;100998.34;5074987;28;20020;-82
2021/12/07 07:31:50;;;;;;;61.28;14.68;;;;;;;0.15;100.00;101005.13;5074758;28;20036;-81
2021/12/07 07:34:16;;;;;;;56.15;15.25;;;;;;;0.15;100.00;101003.44;5073590;28;20097;-81
2021/12/07 07:36:41;;;;;;;55.15;14.18;;;;;;;0.16;100.00;101012.78;5071914;28;20461;-81
2021/12/07 07:39:07;;;;;;;61.05;14.25;;;;;;;0.15;100.00;101008.53;5075792;28;20016;-81
2021/12/07 07:41:32;;;;;;;67.43;14.80;;;;;;;0.15;100.00;101010.22;5075183;28;20032;-81
2021/12/07 07:43:57;;;;;;;58.00;14.82;;;;;;;0.16;100.00;101017.03;5071630;28;20443;-81
2021/12/07 07:46:23;;;;;;;67.43;15.20;;;;;;;0.15;100.00;101016.16;5071467;28;20033;-80
2021/12/07 07:48:48;;;;;;;63.28;15.38;;;;;;;0.16;100.00;101015.34;5071451;28;20020;-80
2021/12/07 07:51:14;;;;;;;57.25;15.45;;;;;;;0.17;100.00;101017.06;5074349;28;20024;-80
2021/12/07 07:53:39;;;;;;;59.15;14.57;;;;;;;0.20;100.00;101014.59;5077171;28;20249;-81
2021/12/07 07:56:05;;;;;;;62.85;15.75;;;;;;;0.23;100.00;101013.78;5071483;28;20028;-81
2021/12/07 07:58:30;;;;;;;61.30;15.77;;;;;;;0.24;100.00;101005.31;5072313;28;20021;-81
2021/12/07 08:00:55;;;;;;;59.97;14.68;;;;;;;0.26;100.00;101001.97;5071953;28;20047;-80
2021/12/07 08:03:21;;;;;;;58.20;14.93;;;;;;;0.28;100.00;100994.34;5071810;28;20067;-81
2021/12/07 08:05:47;;;;;;;59.30;15.32;;;;;;;0.31;100.00;100989.31;5071663;28;20555;-81
2021/12/07 08:08:12;;;;;;;67.55;15.38;;;;;;;0.37;100.00;100999.63;5071433;28;20105;-82
2021/12/07 08:10:38;;;;;;;63.60;14.95;;;;;;;0.38;100.00;100997.13;5071875;28;20029;-81
2021/12/07 08:13:06;;;;;;;64.03;14.43;;;;;;;0.45;100.00;100999.78;5071213;28;20050;-81
2021/12/07 08:15:36;;;;;;;53.90;14.95;;;;;;;0.49;100.00;100993.91;5071878;28;20032;-81
2021/12/07 08:18:03;;;;;;;63.30;15.65;;;;;;;0.52;100.00;101005.03;5071145;28;20020;-81
2021/12/07 08:20:28;;;;;;;74.88;16.25;;;;;;;0.55;100.00;101007.63;5071111;28;20045;-81
2021/12/07 08:22:54;;;;;;;57.28;15.45;;;;;;;0.60;100.00;101000.97;5071805;28;20193;-87
2021/12/07 08:25:20;;;;;;;66.38;15.65;;;;;;;0.64;100.00;101012.91;5072065;28;20506;-85
2021/12/07 08:27:45;;;;;;;61.35;15.15;;;;;;;0.67;100.00;101002.78;5071821;28;20028;-88
2021/12/07 08:30:13;;;;;;;54.55;16.08;;;;;;;0.71;100.00;101012.22;5071787;28;20103;-85
2021/12/07 08:32:44;;;;;;;72.90;15.85;;;;;;;0.75;100.00;101003.75;5072046;28;20036;-89
2021/12/07 08:35:14;;;;;;;62.88;15.80;;;;;;;0.85;100.00;101009.06;5070071;28;20111;-87
2021/12/07 08:37:40;;;;;;;63.33;15.68;;;;;;;0.98;100.00;101018.66;5071968;28;20078;-92
2021/12/07 08:40:09;;;;;;;65.15;16.65;;;;;;;1.17;100.00;101013.88;5076906;28;20111;-91
2021/12/07 08:42:35;;;;;;;78.32;17.05;;;;;;;1.33;100.00;101020.13;5070748;28;20074;-91
2021/12/07 08:45:06;;;;;;;74.22;17.58;;;;;;;1.44;100.00;101017.72;5071657;28;20497;-92
2021/12/07 08:47:31;;;;;;;78.13;16.42;;;;;;;1.51;100.00;101016.97;5071028;28;20478;-86
2021/12/07 08:49:57;;;;;;;63.45;15.90;;;;;;;1.51;100.00;101014.44;5071599;28;20016;-91
2021/12/07 08:52:23;;;;;;;74.28;16.70;;;;;;;1.52;100.00;101013.59;5071954;28;20062;-87
2021/12/07 08:59:59;;;;;;;68.80;16.05;;;;;;;1.48;100.00;101016.94;5071450;28;20437;-91
2021/12/07 09:02:25;;;;;;;67.97;13.80;;;;;;;1.51;100.00;101019.53;5070319;28;20471;-90
2021/12/07 09:04:53;;;;;;;59.70;14.52;;;;;;;1.51;100.00;101014.44;5071237;28;20028;-90
2021/12/07 09:07:20;;;;;;;61.78;13.35;;;;;;;1.50;100.00;100999.97;5075811;28;20024;-89
2021/12/07 09:09:46;;;;;;;62.60;13.23;;;;;;;1.51;100.00;101002.53;5073019;28;20032;-89
2021/12/07 09:12:13;;;;;;;55.13;12.52;;;;;;;1.51;100.00;100992.31;5074720;28;20107;-89
2021/12/07 09:14:42;;;;;;;55.28;11.52;;;;;;;1.55;100.00;100995.78;5071303;28;20024;-91
2021/12/07 09:17:08;;;;;;;47.58;11.80;;;;;;;1.56;100.00;100993.25;5069374;28;20066;-91
2021/12/07 09:19:34;;;;;;;62.47;12.30;;;;;;;1.61;100.00;100992.44;5076392;28;20052;-90
2021/12/07 09:22:00;;;;;;;48.47;10.32;;;;;;;1.68;100.00;100995.13;5073458;28;20082;-90
2021/12/07 09:24:26;;;;;;;55.00;11.88;;;;;;;1.72;100.00;100998.56;5069300;28;20131;-90
2021/12/07 09:26:52;;;;;;;53.45;11.57;;;;;;;1.79;100.00;101002.94;5075289;28;20086;-90
2021/12/07 09:29:18;;;;;;;47.55;11.13;;;;;;;1.88;100.00;101005.63;5071659;28;20467;-89
2021/12/07 09:31:44;;;;;;;54.88;12.02;;;;;;;1.90;100.00;101001.41;5070454;28;20016;-90
2021/12/07 09:34:11;;;;;;;59.38;12.75;;;;;;;1.92;100.00;101003.13;5070477;28;20036;-90
2021/12/07 09:36:37;;;;;;;49.90;10.80;;;;;;;1.93;100.00;101006.53;5070855;28;20040;-91
2021/12/07 09:39:05;;;;;;;52.88;10.85;;;;;;;1.91;100.00;101005.69;5072040;28;20024;-90
2021/12/07 09:41:31;;;;;;;56.33;11.32;;;;;;;1.88;100.00;101006.50;5078359;28;20060;-89
2021/12/07 09:43:56;;;;;;;51.50;11.23;;;;;;;1.89;100.00;101002.25;5071309;28;20399;-90
2021/12/07 09:46:22;;;;;;;50.30;11.80;;;;;;;1.89;100.00;101002.25;5069910;28;20425;-90
2021/12/07 09:48:48;;;;;;;60.95;11.30;;;;;;;1.89;100.00;101003.09;5070255;28;20036;-96
2021/12/07 09:51:16;;;;;;;50.03;11.32;;;;;;;1.85;100.00;101001.31;5073131;28;20028;-96
2021/12/07 09:53:44;;;;;;;65.07;13.10;;;;;;;1.85;100.00;100997.91;5073173;28;20052;-95
2021/12/07 09:56:10;;;;;;;61.03;11.82;;;;;;;1.87;100.00;101004.75;5069950;28;20025;-96
2021/12/07 09:58:36;;;;;;;63.97;12.20;;;;;;;1.86;100.00;101007.28;5069840;28;20082;-95
2021/12/07 10:01:04;;;;;;;41.78;11.05;;;;;;;1.83;100.00;100999.59;5071039;28;20464;-96
2021/12/07 10:03:29;;;;;;;53.22;12.27;;;;;;;1.85;100.00;101003.00;5086330;28;20033;-95
2021/12/07 10:05:55;;;;;;;54.42;13.05;;;;;;;1.86;100.00;101000.50;5069805;28;20024;-96
2021/12/07 10:08:20;;;;;;;50.22;13.00;;;;;;;1.87;100.00;100992.00;5069432;28;20070;-96
2021/12/07 10:10:51;;;;;;;54.78;11.30;;;;;;;1.88;100.00;100993.72;5087898;28;20020;-96
2021/12/07 10:13:16;;;;;;;55.47;11.85;;;;;;;1.91;100.00;100992.91;5066392;28;20399;-96
2021/12/07 10:15:43;;;;;;;59.75;11.45;;;;;;;1.89;100.00;100989.47;5068887;28;20475;-96
2021/12/07 10:18:19;;;;;;;52.92;11.85;;;;;;;1.94;100.00;101004.00;5069803;28;20052;-96
2021/12/07 10:20:47;;;;;;;54.72;12.38;;;;;;;1.95;100.00;100989.53;5069362;28;20586;-96
2021/12/07 10:23:16;;;;;;;56.05;11.70;;;;;;;1.97;100.00;100988.72;5069429;28;20052;-95
2021/12/07 10:25:47;;;;;;;57.30;11.98;;;;;;;1.99;100.00;100981.91;5052851;28;20131;-95
2021/12/07 10:28:30;;;;;;;56.78;11.65;;;;;;;2.02;100.00;100973.44;5063575;28;20091;-95
2021/12/07 10:31:01;;;;;;;61.63;11.32;;;;;;;2.06;100.00;100974.31;5069014;28;20029;-96
2021/12/07 10:33:44;;;;;;;57.47;11.50;;;;;;;2.06;100.00;100977.75;5069631;28;20036;-96
2021/12/07 10:36:23;;;;;;;56.22;11.40;;;;;;;2.11;100.00;100983.81;5071274;28;20406;-95
2021/12/07 10:38:51;;;;;;;57.28;12.13;;;;;;;2.16;100.00;100976.19;5071299;28;20487;-96
2021/12/07 10:41:21;;;;;;;61.30;12.95;;;;;;;2.17;100.00;100960.88;5067991;28;20036;-95
2021/12/07 10:43:52;;;;;;;56.80;12.60;;;;;;;2.18;100.00;100954.91;5070252;28;20021;-96
2021/12/07 10:46:25;;;;;;;59.47;13.05;;;;;;;2.22;100.00;100945.56;5068273;28;20028;-95
2021/12/07 10:48:50;;;;;;;55.97;12.13;;;;;;;2.26;100.00;100937.06;5068642;28;20036;-95
2021/12/07 10:51:16;;;;;;;70.10;14.88;;;;;;;2.30;100.00;100944.81;5068183;28;20332;-95
2021/12/07 10:53:54;;;;;;;64.97;14.23;;;;;;;2.33;100.00;100937.16;5068560;28;20016;-96
2021/12/07 10:56:34;;;;;;;60.35;14.65;;;;;;;2.38;100.00;100935.53;5068287;28;20096;-95
2021/12/07 10:59:08;;;;;;;64.00;15.00;;;;;;;2.44;100.00;100931.31;5067517;28;20052;-95
2021/12/07 11:01:40;;;;;;;75.72;16.27;;;;;;;2.48;100.00;100928.81;5069745;28;20078;-95
2021/12/07 11:04:21;;;;;;;61.10;15.95;;;;;;;2.53;100.00;100931.41;5068459;28;20028;-94
2021/12/07 11:07:05;;;;;;;74.65;17.38;;;;;;;2.56;100.00;100914.41;5075053;28;20498;-95
2021/12/07 11:10:08;;;;;;;76.50;16.98;;;;;;;2.62;100.00;100903.34;5070413;28;20032;-94
2021/12/07 11:12:51;;;;;;;69.57;16.75;;;;;;;2.65;100.00;100894.03;5068420;28;20044;-92
2021/12/07 11:15:26;;;;;;;65.55;15.90;;;;;;;2.65;100.00;100888.03;5070442;28;20128;-92
2021/12/07 11:17:56;;;;;;;69.72;14.88;;;;;;;2.70;100.00;100891.50;5078226;28;20028;-96
2021/12/07 11:20:21;;;;;;;68.43;15.48;;;;;;;2.71;100.00;100896.63;5072108;28;20048;-89
2021/12/07 11:22:52;;;;;;;61.88;14.20;;;;;;;2.72;100.00;100887.25;5076228;28;20420;-88
2021/12/07 11:25:41;;;;;;;62.70;13.40;;;;;;;2.76;100.00;100883.88;5069480;28;20082;-84
2021/12/07 11:31:15;;;;;;;63.88;14.32;;;;;;;2.80;100.00;100882.22;5068416;28;20098;-94
2021/12/07 11:33:41;;;;;;;59.97;13.82;;;;;;;2.81;100.00;100877.09;5074080;28;20074;-86
2021/12/07 11:36:16;;;;;;;63.53;14.80;;;;;;;2.83;100.00;100869.41;5068210;28;20438;-85
2021/12/07 11:38:41;;;;;;;64.75;13.75;;;;;;;2.87;100.00;100866.88;5069148;28;20039;-87
2021/12/07 11:41:15;;;;;;;62.42;13.35;;;;;;;2.87;100.00;100866.88;5074085;28;20402;-89
2021/12/07 11:44:03;;;;;;;74.47;14.15;;;;;;;2.93;100.00;100877.19;5071050;28;20025;-88
2021/12/07 11:46:30;;;;;;;60.45;13.35;;;;;;;2.93;100.00;100869.53;5076925;28;20459;-83
2021/12/07 11:49:13;;;;;;;63.25;12.85;;;;;;;2.96;100.00;100876.34;5070909;28;20025;-85
2021/12/07 11:51:41;;;;;;;63.67;11.77;;;;;;;2.93;100.00;100861.84;5067166;28;20032;-82
2021/12/07 11:54:07;;;;;;;49.33;11.35;;;;;;;2.96;100.00;100854.16;5071893;28;20457;-83
2021/12/07 11:56:34;;;;;;;52.10;10.60;;;;;;;2.99;100.00;100856.75;5065862;28;20558;-82
2021/12/07 11:59:00;;;;;;;58.05;11.02;;;;;;;2.99;100.00;100858.47;5068781;28;20024;-82
2021/12/07 12:01:26;;;;;;;55.47;10.45;;;;;;;3.01;100.00;100849.94;5068615;28;20067;-82
2021/12/07 12:03:51;;;;;;;51.13;9.82;;;;;;;3.03;100.00;100840.56;5068378;28;20064;-82
2021/12/07 12:06:17;;;;;;;53.40;10.18;;;;;;;3.09;100.00;100847.44;5068619;28;20166;-82
2021/12/07 12:08:42;;;;;;;60.00;8.82;;;;;;;3.09;100.00;100830.34;5068846;28;20059;-82
2021/12/07 12:11:08;;;;;;;48.42;9.15;;;;;;;3.14;100.00;100832.94;5070646;28;20459;-82
2021/12/07 12:13:59;;;;;;;55.55;10.25;;;;;;;3.17;100.00;100827.84;5072192;28;20024;-81
2021/12/07 12:16:42;;;;;;;59.63;10.15;;;;;;;3.19;100.00;100826.16;5071461;28;20025;-82
2021/12/07 12:19:40;;;;;;;55.05;9.48;;;;;;;3.24;100.00;100824.47;5071524;28;20085;-82
2021/12/07 12:22:37;;;;;;;56.00;10.10;;;;;;;3.26;100.00;100807.44;5078560;28;20574;-82
2021/12/07 12:25:12;;;;;;;54.17;10.07;;;;;;;3.30;100.00;100806.56;5011806;28;20061;-81
2021/12/07 12:27:39;;;;;;;54.90;10.25;;;;;;;3.33;100.00;100798.91;5050192;28;20087;-82
2021/12/07 12:30:20;;;;;;;49.83;9.57;;;;;;;3.35;100.00;100797.19;5050679;28;20032;-82
2021/12/07 12:32:48;;;;;;;54.70;10.57;;;;;;;3.37;100.00;100789.53;5051238;28;20027;-81
2021/12/07 12:35:14;;;;;;;55.83;9.90;;;;;;;3.39;100.00;100781.03;5058551;28;20043;-81
2021/12/07 12:37:48;;;;;;;47.72;8.95;;;;;;;3.39;100.00;100782.72;5051825;28;20476;-82
2021/12/07 12:40:23;;;;;;;47.47;8.35;;;;;;;3.36;100.00;100778.44;5051876;28;20031;-81
2021/12/07 12:42:52;;;;;;;48.95;8.85;;;;;;;3.35;100.00;100780.97;5049345;28;20415;-82
2021/12/07 12:45:35;;;;;;;50.17;7.93;;;;;;;3.36;100.00;100775.00;5048893;28;20043;-82
2021/12/07 12:48:09;;;;;;;46.47;8.73;;;;;;;3.38;100.00;100773.31;5049334;28;20109;-82
2021/12/07 12:50:40;;;;;;;36.63;8.10;;;;;;;3.37;100.00;100764.78;5047606;28;20843;-82